Alix, AR

12:17 AM CDT on August 29, 2014 (GMT -0500)
RVO CLARKSVILLE 64 W. | Change Station
CLOSE
Current Station
Personal Weather Station
Location: Clarksville, AR
Elevation: 394 ft
Nearby Weather Stations

Elev 394 ft 35.46 °N, 93.53 °W | Updated 4 seconds ago

Clear
Clear
72.0 °F
Feels Like 70 °F
N
0.0
Wind Variable Wind from NNW
Gusts 0.0 mph

Today
High -- | Low -- °F
--% Chance of Precip.
Yesterday
High -- | Low -- °F
Precip. -- in
6:45 AM 7:46 PM
Waxing Crescent, 12% visible
Pressure 29.90 in
Visibility 10.0 miles
Clouds Few 9500 ft
Heat Index 70 °F
Dew Point 68 °F
Humidity 87%
Rainfall 0.00 in
Snow Depth Not available.
UV 0.0 out of 12
Pollen 10.20 out of 12
Air Quality Not available.
Flu Activity Not available.
METAR KFSM 290453Z 00000KT 10SM FEW095 26/20 A2992 RMK AO2 SLP125 T02610200

More Conditions Fewer Conditions

Pressure 29.90 in
Visibility 10.0 miles
Clouds Few 9500 ft
Heat Index 70 °F
Dew Point 68 °F
Humidity 87%
Rainfall 0.00 in
Snow Depth Not available.
UV 0.0 out of 12
Pollen 10.20 out of 12
Air Quality Not available.
Flu Activity Not available.
METAR KFSM 290453Z 00000KT 10SM FEW095 26/20 A2992 RMK AO2 SLP125 T02610200

More Conditions Fewer Conditions

Nowcast | as of 11:29 PM CDT on August 28, 2014

At 11:30 PM...National Weather Service Doppler radars indicated scattered showers and isolated thunderstorms continuing across the far western portion of the area. This activity was located west of a line from Hallett to Bartlesville. Individual cells were moving to the north at about 25 mph and the area of precipitation was slowly translating eastward. Through 1:00 am... showers and thunderstorms are expected to become more numerous across creek... Pawnee... and Osage counties. Showers may also begin developing in far southeast Oklahoma... affecting Choctaw... Pushmataha... and Le Flore counties.

×

10-Day Weather Forecast

Almanac

Astronomy

Aug. 29, 2014 Rise Set
Actual Time 6:45 AM CDT 7:46 PM CDT
Civil Twilight 6:19 AM CDT 8:12 PM CDT
Nautical Twilight 5:48 AM CDT 8:43 PM CDT
Astronomical Twilight 5:15 AM CDT 9:15 PM CDT
Moon 10:26 AM CDT 9:54 PM CDT
Length of Visible Light 13h 53m
Length of Day
13h 01m
Tomorrow will be 2m 7s shorter.
Waxing Crescent, 12% of the Moon is Illuminated
Today
Waxing Crescent
Sep 2
First Quarter
Sep 8
Full
Sep 15
Last Quarter
Sep 24
New

Today's Extremes

State Highs State Lows

Community

WunderPhotos

Upload Photos

1,748,192 photos uploaded!

Nearby

Snow Depth

Station Depth Elevation
No new snow has been reported.

Earthquake Activity

City Distance Mag. Time & Date
No recent earthquake activity has been reported nearby.
Minimum magnitude displayed is 2.5.

Coastal Water Temperatures

Place Temperature
No Stations Reporting

Nearby Weather Stations